sensor_id;sensor_type;location;lat;lon;timestamp;pressure;altitude;pressure_sealevel;temperature;humidity
60055;BME280;45930;53.514;55.904;2023-02-22T00:00:44;49417.19;;;-149.77;76.22
60055;BME280;45930;53.514;55.904;2023-02-22T00:01:48;49423.16;;;-149.77;75.94
60055;BME280;45930;53.514;55.904;2023-02-22T00:04:16;49440.97;;;-149.77;74.92
60055;BME280;45930;53.514;55.904;2023-02-22T00:05:20;49446.91;;;-149.77;75.77
60055;BME280;45930;53.514;55.904;2023-02-22T00:06:22;49425.13;;;-149.77;76.92
60055;BME280;45930;53.514;55.904;2023-02-22T00:07:24;49417.19;;;-149.77;77.19
60055;BME280;45930;53.514;55.904;2023-02-22T00:08:27;49403.34;;;-149.77;77.08
60055;BME280;45930;53.514;55.904;2023-02-22T00:09:31;49417.19;;;-149.77;77.06
60055;BME280;45930;53.514;55.904;2023-02-22T00:10:32;49435.03;;;-149.77;77.49
60055;BME280;45930;53.514;55.904;2023-02-22T00:11:32;49431.06;;;-149.77;77.46
60055;BME280;45930;53.514;55.904;2023-02-22T00:12:34;49450.88;;;-149.77;77.39
60055;BME280;45930;53.514;55.904;2023-02-22T00:13:37;49399.38;;;-149.77;77.93
60055;BME280;45930;53.514;55.904;2023-02-22T00:14:37;49433.06;;;-149.77;78.10
60055;BME280;45930;53.514;55.904;2023-02-22T00:15:39;49435.03;;;-149.77;77.35
60055;BME280;45930;53.514;55.904;2023-02-22T00:16:41;49403.34;;;-149.77;78.06
60055;BME280;45930;53.514;55.904;2023-02-22T00:17:42;49444.94;;;-149.77;77.23
60055;BME280;45930;53.514;55.904;2023-02-22T00:18:43;49413.25;;;-149.77;77.25
60055;BME280;45930;53.514;55.904;2023-02-22T00:19:44;49413.25;;;-149.77;77.61
60055;BME280;45930;53.514;55.904;2023-02-22T00:20:47;49421.16;;;-149.77;77.45
60055;BME280;45930;53.514;55.904;2023-02-22T00:21:51;49389.47;;;-149.77;76.93
60055;BME280;45930;53.514;55.904;2023-02-22T00:22:57;49419.19;;;-149.77;77.34
60055;BME280;45930;53.514;55.904;2023-02-22T00:24:00;49407.31;;;-149.77;76.82
60055;BME280;45930;53.514;55.904;2023-02-22T00:25:18;49425.13;;;-149.77;76.93
60055;BME280;45930;53.514;55.904;2023-02-22T00:26:21;49413.25;;;-149.77;76.80
60055;BME280;45930;53.514;55.904;2023-02-22T00:27:22;49415.22;;;-149.77;76.78
60055;BME280;45930;53.514;55.904;2023-02-22T00:28:23;49444.94;;;-149.77;75.41
60055;BME280;45930;53.514;55.904;2023-02-22T00:29:25;49448.91;;;-149.77;76.97
60055;BME280;45930;53.514;55.904;2023-02-22T00:30:28;49450.88;;;-149.77;76.26
60055;BME280;45930;53.514;55.904;2023-02-22T00:31:29;49452.84;;;-149.77;77.10
60055;BME280;45930;53.514;55.904;2023-02-22T00:32:30;49437.00;;;-149.77;76.89
60055;BME280;45930;53.514;55.904;2023-02-22T00:33:32;49425.13;;;-149.77;77.25
60055;BME280;45930;53.514;55.904;2023-02-22T00:34:32;49403.34;;;-149.77;78.31
60055;BME280;45930;53.514;55.904;2023-02-22T00:35:33;49387.50;;;-149.77;78.31
60055;BME280;45930;53.514;55.904;2023-02-22T00:36:34;49440.97;;;-149.77;77.98
60055;BME280;45930;53.514;55.904;2023-02-22T00:37:35;49440.97;;;-149.77;77.50
60055;BME280;45930;53.514;55.904;2023-02-22T00:38:36;49417.19;;;-149.77;76.82
60055;BME280;45930;53.514;55.904;2023-02-22T00:39:37;49446.91;;;-149.77;77.00
60055;BME280;45930;53.514;55.904;2023-02-22T00:40:37;49415.22;;;-149.77;77.18
60055;BME280;45930;53.514;55.904;2023-02-22T00:41:39;49425.13;;;-149.77;76.99
60055;BME280;45930;53.514;55.904;2023-02-22T00:42:40;49425.13;;;-149.77;77.41
60055;BME280;45930;53.514;55.904;2023-02-22T00:43:41;49423.16;;;-149.77;75.53
60055;BME280;45930;53.514;55.904;2023-02-22T00:44:41;49444.94;;;-149.77;76.29
60055;BME280;45930;53.514;55.904;2023-02-22T00:45:42;49411.25;;;-149.77;76.23
60055;BME280;45930;53.514;55.904;2023-02-22T00:46:43;49393.44;;;-149.77;76.28
60055;BME280;45930;53.514;55.904;2023-02-22T00:47:44;49403.34;;;-149.77;76.65
60055;BME280;45930;53.514;55.904;2023-02-22T00:48:44;49448.91;;;-149.77;75.24
60055;BME280;45930;53.514;55.904;2023-02-22T00:49:45;49409.28;;;-149.77;75.09
60055;BME280;45930;53.514;55.904;2023-02-22T00:50:46;49405.31;;;-149.77;76.03
60055;BME280;45930;53.514;55.904;2023-02-22T00:51:48;49433.06;;;-149.77;76.97
60055;BME280;45930;53.514;55.904;2023-02-22T00:52:49;49413.25;;;-149.77;77.20
60055;BME280;45930;53.514;55.904;2023-02-22T00:53:51;49417.19;;;-149.77;77.01
60055;BME280;45930;53.514;55.904;2023-02-22T00:54:53;49405.31;;;-149.77;76.53
60055;BME280;45930;53.514;55.904;2023-02-22T00:55:54;49411.25;;;-149.77;76.55
60055;BME280;45930;53.514;55.904;2023-02-22T00:56:55;49431.06;;;-149.77;76.55
60055;BME280;45930;53.514;55.904;2023-02-22T00:57:58;49415.22;;;-149.77;76.46
60055;BME280;45930;53.514;55.904;2023-02-22T00:59:00;49401.34;;;-149.77;76.84
60055;BME280;45930;53.514;55.904;2023-02-22T01:00:03;49411.25;;;-149.77;75.92
60055;BME280;45930;53.514;55.904;2023-02-22T01:01:11;49421.16;;;-149.77;76.04
60055;BME280;45930;53.514;55.904;2023-02-22T01:02:12;49448.91;;;-149.77;75.98
60055;BME280;45930;53.514;55.904;2023-02-22T01:03:15;49433.06;;;-149.77;75.19
60055;BME280;45930;53.514;55.904;2023-02-22T01:04:16;49401.34;;;-149.77;75.52
60055;BME280;45930;53.514;55.904;2023-02-22T01:05:21;49407.31;;;-149.77;75.29
60055;BME280;45930;53.514;55.904;2023-02-22T01:06:22;49405.31;;;-149.77;75.34
60055;BME280;45930;53.514;55.904;2023-02-22T01:07:23;49413.25;;;-149.77;74.70
60055;BME280;45930;53.514;55.904;2023-02-22T01:08:23;49433.06;;;-149.77;75.19
60055;BME280;45930;53.514;55.904;2023-02-22T01:09:24;49444.94;;;-149.77;75.29
60055;BME280;45930;53.514;55.904;2023-02-22T01:10:27;49415.22;;;-149.77;74.99
60055;BME280;45930;53.514;55.904;2023-02-22T01:11:28;49399.38;;;-149.77;74.73
60055;BME280;45930;53.514;55.904;2023-02-22T01:12:30;49405.31;;;-149.77;74.36
60055;BME280;45930;53.514;55.904;2023-02-22T01:13:30;49429.09;;;-149.77;74.43
60055;BME280;45930;53.514;55.904;2023-02-22T01:14:32;49393.44;;;-149.77;74.14
60055;BME280;45930;53.514;55.904;2023-02-22T01:15:35;49417.19;;;-149.77;72.59
60055;BME280;45930;53.514;55.904;2023-02-22T01:16:36;49444.94;;;-149.77;73.61
60055;BME280;45930;53.514;55.904;2023-02-22T01:17:39;49429.09;;;-149.77;73.04
60055;BME280;45930;53.514;55.904;2023-02-22T01:18:41;49433.06;;;-149.77;74.28
60055;BME280;45930;53.514;55.904;2023-02-22T01:19:41;49437.00;;;-149.77;73.75
60055;BME280;45930;53.514;55.904;2023-02-22T01:20:43;49401.34;;;-149.77;74.31
60055;BME280;45930;53.514;55.904;2023-02-22T01:21:48;49435.03;;;-149.77;74.32
60055;BME280;45930;53.514;55.904;2023-02-22T01:22:51;49405.31;;;-149.77;74.44
60055;BME280;45930;53.514;55.904;2023-02-22T01:23:53;49407.31;;;-149.77;74.29
60055;BME280;45930;53.514;55.904;2023-02-22T01:24:54;49395.41;;;-149.77;73.78
60055;BME280;45930;53.514;55.904;2023-02-22T01:25:56;49427.09;;;-149.77;72.73
60055;BME280;45930;53.514;55.904;2023-02-22T01:26:57;49397.41;;;-149.77;73.33
60055;BME280;45930;53.514;55.904;2023-02-22T01:27:59;49423.16;;;-149.77;73.83
60055;BME280;45930;53.514;55.904;2023-02-22T01:29:00;49419.19;;;-149.77;72.71
60055;BME280;45930;53.514;55.904;2023-02-22T01:30:01;49407.31;;;-149.77;73.17
60055;BME280;45930;53.514;55.904;2023-02-22T01:31:08;49409.28;;;-149.77;72.89
60055;BME280;45930;53.514;55.904;2023-02-22T01:32:09;49401.34;;;-149.77;72.33
60055;BME280;45930;53.514;55.904;2023-02-22T01:33:11;49429.09;;;-149.77;72.33
60055;BME280;45930;53.514;55.904;2023-02-22T01:34:12;49433.06;;;-149.77;71.65
60055;BME280;45930;53.514;55.904;2023-02-22T01:35:17;49442.97;;;-149.77;72.45
60055;BME280;45930;53.514;55.904;2023-02-22T01:36:18;49407.31;;;-149.77;72.44
60055;BME280;45930;53.514;55.904;2023-02-22T01:37:19;49433.06;;;-149.77;72.21
60055;BME280;45930;53.514;55.904;2023-02-22T01:38:19;49423.16;;;-149.77;72.27
60055;BME280;45930;53.514;55.904;2023-02-22T01:39:20;49389.47;;;-149.77;72.26
60055;BME280;45930;53.514;55.904;2023-02-22T01:40:41;49411.25;;;-149.77;72.16
60055;BME280;45930;53.514;55.904;2023-02-22T01:41:45;49419.19;;;-149.77;71.39
60055;BME280;45930;53.514;55.904;2023-02-22T01:42:50;49425.13;;;-149.77;70.68
60055;BME280;45930;53.514;55.904;2023-02-22T01:43:51;49423.16;;;-149.77;70.64
60055;BME280;45930;53.514;55.904;2023-02-22T01:46:29;49431.06;;;-149.77;72.11
60055;BME280;45930;53.514;55.904;2023-02-22T01:47:31;49448.91;;;-149.77;72.01
60055;BME280;45930;53.514;55.904;2023-02-22T01:48:40;49458.81;;;-149.77;72.20
60055;BME280;45930;53.514;55.904;2023-02-22T01:49:44;49425.13;;;-149.77;71.72
60055;BME280;45930;53.514;55.904;2023-02-22T01:50:58;49450.88;;;-149.77;70.93
60055;BME280;45930;53.514;55.904;2023-02-22T01:52:02;49444.94;;;-149.77;71.50
60055;BME280;45930;53.514;55.904;2023-02-22T01:53:05;49448.91;;;-149.77;71.26
60055;BME280;45930;53.514;55.904;2023-02-22T01:54:26;49409.28;;;-149.77;72.34
60055;BME280;45930;53.514;55.904;2023-02-22T01:55:30;49440.97;;;-149.77;71.65
60055;BME280;45930;53.514;55.904;2023-02-22T01:56:33;49433.06;;;-149.77;72.67
60055;BME280;45930;53.514;55.904;2023-02-22T01:57:36;49448.91;;;-149.77;73.15
60055;BME280;45930;53.514;55.904;2023-02-22T01:58:41;49421.16;;;-149.77;73.22
60055;BME280;45930;53.514;55.904;2023-02-22T01:59:47;49425.13;;;-149.77;72.14
60055;BME280;45930;53.514;55.904;2023-02-22T02:00:48;49452.84;;;-149.77;73.17
60055;BME280;45930;53.514;55.904;2023-02-22T02:01:49;49482.56;;;-149.77;73.58
60055;BME280;45930;53.514;55.904;2023-02-22T02:02:55;49435.03;;;-149.77;72.83
60055;BME280;45930;53.514;55.904;2023-02-22T02:04:01;49440.97;;;-149.77;73.27
60055;BME280;45930;53.514;55.904;2023-02-22T02:05:03;49442.97;;;-149.77;73.10
60055;BME280;45930;53.514;55.904;2023-02-22T02:06:11;49419.19;;;-149.77;73.78
60055;BME280;45930;53.514;55.904;2023-02-22T02:07:19;49460.78;;;-149.77;73.49
60055;BME280;45930;53.514;55.904;2023-02-22T02:08:35;49407.31;;;-149.77;74.37
60055;BME280;45930;53.514;55.904;2023-02-22T02:10:28;49440.97;;;-149.77;74.93
60055;BME280;45930;53.514;55.904;2023-02-22T02:11:18;49401.34;;;-149.77;74.88
60055;BME280;45930;53.514;55.904;2023-02-22T02:12:20;49429.09;;;-149.77;74.81
60055;BME280;45930;53.514;55.904;2023-02-22T02:13:24;49401.34;;;-149.77;74.36
60055;BME280;45930;53.514;55.904;2023-02-22T02:14:25;49437.00;;;-149.77;73.66
60055;BME280;45930;53.514;55.904;2023-02-22T02:15:32;49444.94;;;-149.77;73.61
60055;BME280;45930;53.514;55.904;2023-02-22T02:16:44;49415.22;;;-149.77;74.39
60055;BME280;45930;53.514;55.904;2023-02-22T02:17:47;49435.03;;;-149.77;74.64
60055;BME280;45930;53.514;55.904;2023-02-22T02:18:49;49425.13;;;-149.77;73.78
60055;BME280;45930;53.514;55.904;2023-02-22T02:20:00;49440.97;;;-149.77;74.39
60055;BME280;45930;53.514;55.904;2023-02-22T02:21:37;49452.84;;;-149.77;75.78
60055;BME280;45930;53.514;55.904;2023-02-22T02:25:30;49407.31;;;-149.77;74.49
60055;BME280;45930;53.514;55.904;2023-02-22T02:33:34;49425.13;;;-149.77;75.19
60055;BME280;45930;53.514;55.904;2023-02-22T02:37:11;49423.16;;;-149.77;74.17
60055;BME280;45930;53.514;55.904;2023-02-22T02:38:31;49405.31;;;-149.77;73.92
60055;BME280;45930;53.514;55.904;2023-02-22T02:39:59;49435.03;;;-149.77;73.41
60055;BME280;45930;53.514;55.904;2023-02-22T02:41:47;49431.06;;;-149.77;73.24
60055;BME280;45930;53.514;55.904;2023-02-22T02:42:33;49425.13;;;-149.77;73.09
60055;BME280;45930;53.514;55.904;2023-02-22T02:45:08;49435.03;;;-149.77;72.57
60055;BME280;45930;53.514;55.904;2023-02-22T02:46:16;49425.13;;;-149.77;73.06
60055;BME280;45930;53.514;55.904;2023-02-22T02:47:26;49417.19;;;-149.77;72.96
60055;BME280;45930;53.514;55.904;2023-02-22T02:48:30;49452.84;;;-149.77;72.76
60055;BME280;45930;53.514;55.904;2023-02-22T02:49:38;49427.09;;;-149.77;71.70
60055;BME280;45930;53.514;55.904;2023-02-22T02:50:44;49476.63;;;-149.77;71.22
60055;BME280;45930;53.514;55.904;2023-02-22T02:51:49;49417.19;;;-149.77;71.81
60055;BME280;45930;53.514;55.904;2023-02-22T02:52:53;49427.09;;;-149.77;72.00
60055;BME280;45930;53.514;55.904;2023-02-22T02:53:56;49427.09;;;-149.77;72.46
60055;BME280;45930;53.514;55.904;2023-02-22T02:54:58;49440.97;;;-149.77;72.69
60055;BME280;45930;53.514;55.904;2023-02-22T02:56:00;49442.97;;;-149.77;72.62
60055;BME280;45930;53.514;55.904;2023-02-22T02:57:01;49448.91;;;-149.77;72.17
60055;BME280;45930;53.514;55.904;2023-02-22T02:58:06;49456.81;;;-149.77;73.03
60055;BME280;45930;53.514;55.904;2023-02-22T02:59:28;49421.16;;;-149.77;72.49
60055;BME280;45930;53.514;55.904;2023-02-22T03:00:32;49427.09;;;-149.77;71.64
60055;BME280;45930;53.514;55.904;2023-02-22T03:01:50;49435.03;;;-149.77;72.08
60055;BME280;45930;53.514;55.904;2023-02-22T03:05:01;49448.91;;;-149.77;71.94
60055;BME280;45930;53.514;55.904;2023-02-22T03:07:29;49444.94;;;-149.77;72.61
60055;BME280;45930;53.514;55.904;2023-02-22T03:08:43;49454.84;;;-149.77;72.63
60055;BME280;45930;53.514;55.904;2023-02-22T03:11:10;49425.13;;;-149.77;71.79
60055;BME280;45930;53.514;55.904;2023-02-22T03:13:49;49442.97;;;-149.77;72.04
60055;BME280;45930;53.514;55.904;2023-02-22T03:17:36;49444.94;;;-149.77;72.54
60055;BME280;45930;53.514;55.904;2023-02-22T03:18:52;49458.81;;;-149.77;71.35
60055;BME280;45930;53.514;55.904;2023-02-22T03:20:00;49435.03;;;-149.77;71.84
60055;BME280;45930;53.514;55.904;2023-02-22T03:23:43;49454.84;;;-149.77;72.72
60055;BME280;45930;53.514;55.904;2023-02-22T03:25:00;49454.84;;;-149.77;72.47
60055;BME280;45930;53.514;55.904;2023-02-22T03:26:12;49429.09;;;-149.77;72.13
60055;BME280;45930;53.514;55.904;2023-02-22T03:27:26;49480.59;;;-149.77;72.27
60055;BME280;45930;53.514;55.904;2023-02-22T03:28:29;49458.81;;;-149.77;72.21
60055;BME280;45930;53.514;55.904;2023-02-22T03:29:32;49480.59;;;-149.77;72.69
60055;BME280;45930;53.514;55.904;2023-02-22T03:30:46;49458.81;;;-149.77;73.07
60055;BME280;45930;53.514;55.904;2023-02-22T03:31:55;49448.91;;;-149.77;72.53
60055;BME280;45930;53.514;55.904;2023-02-22T03:33:07;49468.72;;;-149.77;72.60
60055;BME280;45930;53.514;55.904;2023-02-22T03:34:16;49433.06;;;-149.77;73.09
60055;BME280;45930;53.514;55.904;2023-02-22T03:35:25;49458.81;;;-149.77;72.69
60055;BME280;45930;53.514;55.904;2023-02-22T03:36:34;49480.59;;;-149.77;72.31
60055;BME280;45930;53.514;55.904;2023-02-22T03:37:41;49427.09;;;-149.77;71.71
60055;BME280;45930;53.514;55.904;2023-02-22T03:38:44;49454.84;;;-149.77;72.23
60055;BME280;45930;53.514;55.904;2023-02-22T03:39:46;49468.72;;;-149.77;71.98
60055;BME280;45930;53.514;55.904;2023-02-22T03:40:52;49478.63;;;-149.77;72.64
60055;BME280;45930;53.514;55.904;2023-02-22T03:41:55;49458.81;;;-149.77;72.61
60055;BME280;45930;53.514;55.904;2023-02-22T03:43:05;49417.19;;;-149.77;72.36
60055;BME280;45930;53.514;55.904;2023-02-22T03:44:11;49452.84;;;-149.77;72.01
60055;BME280;45930;53.514;55.904;2023-02-22T03:45:16;49452.84;;;-149.77;73.54
60055;BME280;45930;53.514;55.904;2023-02-22T03:46:19;49484.56;;;-149.77;73.62
60055;BME280;45930;53.514;55.904;2023-02-22T03:47:36;49431.06;;;-149.77;73.97
60055;BME280;45930;53.514;55.904;2023-02-22T03:50:27;49470.69;;;-149.77;72.04
60055;BME280;45930;53.514;55.904;2023-02-22T03:51:30;49454.84;;;-149.77;70.96
60055;BME280;45930;53.514;55.904;2023-02-22T03:52:33;49433.06;;;-149.77;71.59
60055;BME280;45930;53.514;55.904;2023-02-22T03:53:34;49456.81;;;-149.77;71.25
60055;BME280;45930;53.514;55.904;2023-02-22T03:54:38;49450.88;;;-149.77;72.10
60055;BME280;45930;53.514;55.904;2023-02-22T03:55:40;49456.81;;;-149.77;70.55
60055;BME280;45930;53.514;55.904;2023-02-22T03:56:46;49448.91;;;-149.77;73.10
60055;BME280;45930;53.514;55.904;2023-02-22T03:57:52;49444.94;;;-149.77;73.00
60055;BME280;45930;53.514;55.904;2023-02-22T03:58:54;49444.94;;;-149.77;71.56
60055;BME280;45930;53.514;55.904;2023-02-22T03:59:55;49456.81;;;-149.77;70.70
60055;BME280;45930;53.514;55.904;2023-02-22T04:00:56;49464.75;;;-149.77;71.98
60055;BME280;45930;53.514;55.904;2023-02-22T04:01:57;49433.06;;;-149.77;71.98
60055;BME280;45930;53.514;55.904;2023-02-22T04:02:58;49446.91;;;-149.77;71.61
60055;BME280;45930;53.514;55.904;2023-02-22T04:03:59;49452.84;;;-149.77;69.48
60055;BME280;45930;53.514;55.904;2023-02-22T04:05:00;49442.97;;;-149.77;70.64
60055;BME280;45930;53.514;55.904;2023-02-22T04:06:01;49440.97;;;-149.77;70.15
60055;BME280;45930;53.514;55.904;2023-02-22T04:07:03;49439.00;;;-149.77;70.09
60055;BME280;45930;53.514;55.904;2023-02-22T04:08:04;49433.06;;;-149.77;69.37
60055;BME280;45930;53.514;55.904;2023-02-22T04:09:05;49450.88;;;-149.77;69.05
60055;BME280;45930;53.514;55.904;2023-02-22T04:10:09;49425.13;;;-149.77;67.26
60055;BME280;45930;53.514;55.904;2023-02-22T04:11:10;49407.31;;;-149.77;67.81
60055;BME280;45930;53.514;55.904;2023-02-22T04:12:11;49454.84;;;-149.77;66.83
60055;BME280;45930;53.514;55.904;2023-02-22T04:13:12;49439.00;;;-149.77;65.69
60055;BME280;45930;53.514;55.904;2023-02-22T04:14:14;49452.84;;;-149.77;66.77
60055;BME280;45930;53.514;55.904;2023-02-22T04:15:18;49423.16;;;-149.77;65.82
60055;BME280;45930;53.514;55.904;2023-02-22T04:16:19;49444.94;;;-149.77;66.52
60055;BME280;45930;53.514;55.904;2023-02-22T04:17:20;49415.22;;;-149.77;66.80
60055;BME280;45930;53.514;55.904;2023-02-22T04:18:21;49446.91;;;-149.77;66.53
60055;BME280;45930;53.514;55.904;2023-02-22T04:19:21;49437.00;;;-149.77;65.50
60055;BME280;45930;53.514;55.904;2023-02-22T04:20:22;49425.13;;;-149.77;65.72
60055;BME280;45930;53.514;55.904;2023-02-22T04:21:25;49407.31;;;-149.77;65.00
60055;BME280;45930;53.514;55.904;2023-02-22T04:22:25;49462.75;;;-149.77;65.41
60055;BME280;45930;53.514;55.904;2023-02-22T04:23:26;49415.22;;;-149.77;65.66
60055;BME280;45930;53.514;55.904;2023-02-22T04:24:27;49421.16;;;-149.77;64.71
60055;BME280;45930;53.514;55.904;2023-02-22T04:25:28;49421.16;;;-149.77;64.46
60055;BME280;45930;53.514;55.904;2023-02-22T04:26:28;49405.31;;;-149.77;64.02
60055;BME280;45930;53.514;55.904;2023-02-22T04:27:29;49427.09;;;-149.77;64.00
60055;BME280;45930;53.514;55.904;2023-02-22T04:28:30;49421.16;;;-149.77;63.24
60055;BME280;45930;53.514;55.904;2023-02-22T04:29:31;49417.19;;;-149.77;62.58
60055;BME280;45930;53.514;55.904;2023-02-22T04:30:31;49401.34;;;-149.77;62.10
60055;BME280;45930;53.514;55.904;2023-02-22T04:31:33;49399.38;;;-149.77;61.66
60055;BME280;45930;53.514;55.904;2023-02-22T04:32:34;49431.06;;;-149.77;61.42
60055;BME280;45930;53.514;55.904;2023-02-22T04:33:34;49407.31;;;-149.77;60.67
60055;BME280;45930;53.514;55.904;2023-02-22T04:34:35;49387.50;;;-149.77;60.52
60055;BME280;45930;53.514;55.904;2023-02-22T04:35:36;49417.19;;;-149.77;60.15
60055;BME280;45930;53.514;55.904;2023-02-22T04:36:37;49395.41;;;-149.77;59.97
60055;BME280;45930;53.514;55.904;2023-02-22T04:37:38;49401.34;;;-149.77;59.57
60055;BME280;45930;53.514;55.904;2023-02-22T04:38:38;49393.44;;;-149.77;59.30
60055;BME280;45930;53.514;55.904;2023-02-22T04:39:39;49403.34;;;-149.77;59.05
60055;BME280;45930;53.514;55.904;2023-02-22T04:40:40;49401.34;;;-149.77;58.80
60055;BME280;45930;53.514;55.904;2023-02-22T04:41:41;49385.50;;;-149.77;58.96
60055;BME280;45930;53.514;55.904;2023-02-22T04:42:41;49407.31;;;-149.77;58.95
60055;BME280;45930;53.514;55.904;2023-02-22T04:43:42;49411.25;;;-149.77;59.02
60055;BME280;45930;53.514;55.904;2023-02-22T04:44:43;49391.44;;;-149.77;58.95
60055;BME280;45930;53.514;55.904;2023-02-22T04:45:44;49397.41;;;-149.77;58.12
60055;BME280;45930;53.514;55.904;2023-02-22T04:46:45;49405.31;;;-149.77;58.21
60055;BME280;45930;53.514;55.904;2023-02-22T04:47:46;49409.28;;;-149.77;57.76
60055;BME280;45930;53.514;55.904;2023-02-22T04:48:47;49440.97;;;-149.77;57.71
60055;BME280;45930;53.514;55.904;2023-02-22T04:49:47;49413.25;;;-149.77;57.56
60055;BME280;45930;53.514;55.904;2023-02-22T04:50:48;49403.34;;;-149.77;57.17
60055;BME280;45930;53.514;55.904;2023-02-22T04:51:50;49405.31;;;-149.77;56.92
60055;BME280;45930;53.514;55.904;2023-02-22T04:52:51;49401.34;;;-149.77;56.77
60055;BME280;45930;53.514;55.904;2023-02-22T04:53:52;49389.47;;;-149.77;56.83
60055;BME280;45930;53.514;55.904;2023-02-22T04:54:52;49385.50;;;-149.77;56.72
60055;BME280;45930;53.514;55.904;2023-02-22T04:55:53;49371.66;;;-149.77;56.31
60055;BME280;45930;53.514;55.904;2023-02-22T04:56:54;49411.25;;;-149.77;56.25
60055;BME280;45930;53.514;55.904;2023-02-22T04:57:55;49411.25;;;-149.77;55.93
60055;BME280;45930;53.514;55.904;2023-02-22T04:58:56;49389.47;;;-149.77;55.70
60055;BME280;45930;53.514;55.904;2023-02-22T04:59:58;49385.50;;;-149.77;55.32
60055;BME280;45930;53.514;55.904;2023-02-22T05:00:59;49401.34;;;-149.77;55.41
60055;BME280;45930;53.514;55.904;2023-02-22T05:02:00;49393.44;;;-149.77;55.33
60055;BME280;45930;53.514;55.904;2023-02-22T05:03:01;49403.34;;;-149.77;55.47
60055;BME280;45930;53.514;55.904;2023-02-22T05:04:03;49393.44;;;-149.77;55.39
60055;BME280;45930;53.514;55.904;2023-02-22T05:05:05;49415.22;;;-149.77;54.59
60055;BME280;45930;53.514;55.904;2023-02-22T05:06:06;49413.25;;;-149.77;55.01
60055;BME280;45930;53.514;55.904;2023-02-22T05:07:07;49393.44;;;-149.77;54.95
60055;BME280;45930;53.514;55.904;2023-02-22T05:08:07;49401.34;;;-149.77;54.68
60055;BME280;45930;53.514;55.904;2023-02-22T05:09:08;49363.72;;;-149.77;54.68
60055;BME280;45930;53.514;55.904;2023-02-22T05:10:10;49383.53;;;-149.77;54.76
60055;BME280;45930;53.514;55.904;2023-02-22T05:11:10;49391.44;;;-149.77;54.52
60055;BME280;45930;53.514;55.904;2023-02-22T05:12:11;49385.50;;;-149.77;54.52
60055;BME280;45930;53.514;55.904;2023-02-22T05:13:12;49377.59;;;-149.77;54.29
60055;BME280;45930;53.514;55.904;2023-02-22T05:14:13;49397.41;;;-149.77;54.25
60055;BME280;45930;53.514;55.904;2023-02-22T05:15:16;49397.41;;;-149.77;54.08
60055;BME280;45930;53.514;55.904;2023-02-22T05:16:18;49393.44;;;-149.77;54.14
60055;BME280;45930;53.514;55.904;2023-02-22T05:17:18;49373.63;;;-149.77;53.89
60055;BME280;45930;53.514;55.904;2023-02-22T05:18:19;49375.59;;;-149.77;53.86
60055;BME280;45930;53.514;55.904;2023-02-22T05:19:20;49363.72;;;-149.77;53.50
60055;BME280;45930;53.514;55.904;2023-02-22T05:21:23;49369.66;;;-149.77;53.20
60055;BME280;45930;53.514;55.904;2023-02-22T05:22:24;49385.50;;;-149.77;53.02
60055;BME280;45930;53.514;55.904;2023-02-22T05:23:25;49397.41;;;-149.77;52.75
60055;BME280;45930;53.514;55.904;2023-02-22T05:24:26;49373.63;;;-149.77;52.85
60055;BME280;45930;53.514;55.904;2023-02-22T05:25:27;49363.72;;;-149.77;52.58
60055;BME280;45930;53.514;55.904;2023-02-22T05:26:28;49393.44;;;-149.77;52.91
60055;BME280;45930;53.514;55.904;2023-02-22T05:27:29;49381.56;;;-149.77;52.81
60055;BME280;45930;53.514;55.904;2023-02-22T05:28:29;49369.66;;;-149.77;52.58
60055;BME280;45930;53.514;55.904;2023-02-22T05:29:31;49363.72;;;-149.77;52.42
60055;BME280;45930;53.514;55.904;2023-02-22T05:30:34;49371.66;;;-149.77;52.47
60055;BME280;45930;53.514;55.904;2023-02-22T05:31:35;49337.97;;;-149.77;52.24
60055;BME280;45930;53.514;55.904;2023-02-22T05:32:36;49377.59;;;-149.77;52.22
60055;BME280;45930;53.514;55.904;2023-02-22T05:33:37;49377.59;;;-149.77;51.66
60055;BME280;45930;53.514;55.904;2023-02-22T05:34:39;49383.53;;;-149.77;51.90
60055;BME280;45930;53.514;55.904;2023-02-22T05:35:39;49399.38;;;-149.77;51.55
60055;BME280;45930;53.514;55.904;2023-02-22T05:36:40;49377.59;;;-149.77;51.72
60055;BME280;45930;53.514;55.904;2023-02-22T05:37:41;49383.53;;;-149.77;51.26
60055;BME280;45930;53.514;55.904;2023-02-22T05:38:42;49353.81;;;-149.77;51.64
60055;BME280;45930;53.514;55.904;2023-02-22T05:39:44;49389.47;;;-149.77;51.50
60055;BME280;45930;53.514;55.904;2023-02-22T05:40:45;49353.81;;;-149.77;51.48
60055;BME280;45930;53.514;55.904;2023-02-22T05:41:46;49363.72;;;-149.77;51.29
60055;BME280;45930;53.514;55.904;2023-02-22T05:42:48;49365.69;;;-149.77;51.18
60055;BME280;45930;53.514;55.904;2023-02-22T05:43:49;49373.63;;;-149.77;51.33
60055;BME280;45930;53.514;55.904;2023-02-22T05:44:50;49367.69;;;-149.77;50.97
60055;BME280;45930;53.514;55.904;2023-02-22T05:45:51;49341.94;;;-149.77;50.82
60055;BME280;45930;53.514;55.904;2023-02-22T05:46:51;49373.63;;;-149.77;50.98
60055;BME280;45930;53.514;55.904;2023-02-22T05:47:53;49365.69;;;-149.77;50.65
60055;BME280;45930;53.514;55.904;2023-02-22T05:48:54;49387.50;;;-149.77;50.31
60055;BME280;45930;53.514;55.904;2023-02-22T05:49:55;49355.78;;;-149.77;50.38
60055;BME280;45930;53.514;55.904;2023-02-22T05:50:57;49371.66;;;-149.77;50.45
60055;BME280;45930;53.514;55.904;2023-02-22T05:51:57;49357.78;;;-149.77;50.11
60055;BME280;45930;53.514;55.904;2023-02-22T05:53:00;49361.75;;;-149.77;50.11
60055;BME280;45930;53.514;55.904;2023-02-22T05:54:01;49373.63;;;-149.77;50.00
60055;BME280;45930;53.514;55.904;2023-02-22T05:55:01;49367.69;;;-149.77;50.17